sensor_id;sensor_type;location;lat;lon;timestamp;P1;durP1;ratioP1;P2;durP2;ratioP2
23702;SDS011;12030;50.376;8.762;2023-10-31T00:01:16;4.07;;;3.67;;
23702;SDS011;12030;50.376;8.762;2023-10-31T00:03:42;4.07;;;3.67;;
23702;SDS011;12030;50.376;8.762;2023-10-31T00:06:09;3.70;;;3.40;;
23702;SDS011;12030;50.376;8.762;2023-10-31T00:08:35;3.70;;;3.40;;
23702;SDS011;12030;50.376;8.762;2023-10-31T00:11:00;3.57;;;2.83;;
23702;SDS011;12030;50.376;8.762;2023-10-31T00:13:26;3.00;;;2.70;;
23702;SDS011;12030;50.376;8.762;2023-10-31T00:15:51;2.67;;;2.30;;
23702;SDS011;12030;50.376;8.762;2023-10-31T00:18:17;2.17;;;1.97;;
23702;SDS011;12030;50.376;8.762;2023-10-31T00:20:42;1.33;;;1.00;;
23702;SDS011;12030;50.376;8.762;2023-10-31T00:23:08;1.30;;;0.93;;
23702;SDS011;12030;50.376;8.762;2023-10-31T00:25:33;0.93;;;0.50;;
23702;SDS011;12030;50.376;8.762;2023-10-31T00:27:59;0.73;;;0.53;;
23702;SDS011;12030;50.376;8.762;2023-10-31T00:30:24;0.40;;;0.37;;
23702;SDS011;12030;50.376;8.762;2023-10-31T00:32:50;1.90;;;0.50;;
23702;SDS011;12030;50.376;8.762;2023-10-31T00:35:15;1.23;;;0.40;;
23702;SDS011;12030;50.376;8.762;2023-10-31T00:37:41;0.63;;;0.40;;
23702;SDS011;12030;50.376;8.762;2023-10-31T00:40:07;1.37;;;0.40;;
23702;SDS011;12030;50.376;8.762;2023-10-31T00:42:36;0.90;;;0.40;;
23702;SDS011;12030;50.376;8.762;2023-10-31T00:45:02;1.33;;;0.30;;
23702;SDS011;12030;50.376;8.762;2023-10-31T00:47:27;0.50;;;0.30;;
23702;SDS011;12030;50.376;8.762;2023-10-31T00:49:53;0.87;;;0.23;;
23702;SDS011;12030;50.376;8.762;2023-10-31T00:52:18;0.40;;;0.30;;
23702;SDS011;12030;50.376;8.762;2023-10-31T00:54:44;0.87;;;0.37;;
23702;SDS011;12030;50.376;8.762;2023-10-31T00:57:10;0.60;;;0.30;;
23702;SDS011;12030;50.376;8.762;2023-10-31T00:59:35;0.30;;;0.20;;
23702;SDS011;12030;50.376;8.762;2023-10-31T01:02:01;0.40;;;0.23;;
23702;SDS011;12030;50.376;8.762;2023-10-31T01:04:26;0.33;;;0.20;;
23702;SDS011;12030;50.376;8.762;2023-10-31T01:06:52;0.50;;;0.30;;
23702;SDS011;12030;50.376;8.762;2023-10-31T01:09:17;0.87;;;0.20;;
23702;SDS011;12030;50.376;8.762;2023-10-31T01:11:43;0.40;;;0.27;;
23702;SDS011;12030;50.376;8.762;2023-10-31T01:14:08;0.50;;;0.20;;
23702;SDS011;12030;50.376;8.762;2023-10-31T01:16:34;1.23;;;0.30;;
23702;SDS011;12030;50.376;8.762;2023-10-31T01:18:59;0.20;;;0.20;;
23702;SDS011;12030;50.376;8.762;2023-10-31T01:21:25;0.77;;;0.30;;
23702;SDS011;12030;50.376;8.762;2023-10-31T01:23:50;2.57;;;0.20;;
23702;SDS011;12030;50.376;8.762;2023-10-31T01:26:16;0.53;;;0.27;;
23702;SDS011;12030;50.376;8.762;2023-10-31T01:28:41;1.93;;;0.30;;
23702;SDS011;12030;50.376;8.762;2023-10-31T01:31:07;1.33;;;0.20;;
23702;SDS011;12030;50.376;8.762;2023-10-31T01:33:33;0.47;;;0.20;;
23702;SDS011;12030;50.376;8.762;2023-10-31T01:36:00;0.43;;;0.10;;
23702;SDS011;12030;50.376;8.762;2023-10-31T01:38:25;0.43;;;0.20;;
23702;SDS011;12030;50.376;8.762;2023-10-31T01:40:51;0.67;;;0.10;;
23702;SDS011;12030;50.376;8.762;2023-10-31T01:43:32;0.30;;;0.10;;
23702;SDS011;12030;50.376;8.762;2023-10-31T01:45:58;0.50;;;0.20;;
23702;SDS011;12030;50.376;8.762;2023-10-31T01:48:24;0.87;;;0.20;;
23702;SDS011;12030;50.376;8.762;2023-10-31T01:50:51;2.47;;;0.30;;
23702;SDS011;12030;50.376;8.762;2023-10-31T01:53:16;0.23;;;0.20;;
23702;SDS011;12030;50.376;8.762;2023-10-31T01:55:44;0.73;;;0.10;;
23702;SDS011;12030;50.376;8.762;2023-10-31T01:58:10;0.50;;;0.10;;
23702;SDS011;12030;50.376;8.762;2023-10-31T02:00:37;0.23;;;0.10;;
23702;SDS011;12030;50.376;8.762;2023-10-31T02:03:06;0.97;;;0.13;;
23702;SDS011;12030;50.376;8.762;2023-10-31T02:05:32;0.30;;;0.20;;
23702;SDS011;12030;50.376;8.762;2023-10-31T02:07:59;2.93;;;0.30;;
23702;SDS011;12030;50.376;8.762;2023-10-31T02:10:25;0.50;;;0.17;;
23702;SDS011;12030;50.376;8.762;2023-10-31T02:12:50;0.53;;;0.10;;
23702;SDS011;12030;50.376;8.762;2023-10-31T02:15:16;0.20;;;0.10;;
23702;SDS011;12030;50.376;8.762;2023-10-31T02:17:42;0.27;;;0.10;;
23702;SDS011;12030;50.376;8.762;2023-10-31T02:20:07;0.60;;;0.20;;
23702;SDS011;12030;50.376;8.762;2023-10-31T02:22:33;0.63;;;0.10;;
23702;SDS011;12030;50.376;8.762;2023-10-31T02:24:59;0.20;;;0.10;;
23702;SDS011;12030;50.376;8.762;2023-10-31T02:27:24;0.93;;;0.20;;
23702;SDS011;12030;50.376;8.762;2023-10-31T02:29:50;0.87;;;0.20;;
23702;SDS011;12030;50.376;8.762;2023-10-31T02:32:15;0.30;;;0.20;;
23702;SDS011;12030;50.376;8.762;2023-10-31T02:34:41;0.47;;;0.20;;
23702;SDS011;12030;50.376;8.762;2023-10-31T02:37:06;0.47;;;0.20;;
23702;SDS011;12030;50.376;8.762;2023-10-31T02:39:32;0.40;;;0.20;;
23702;SDS011;12030;50.376;8.762;2023-10-31T02:41:58;1.47;;;0.20;;
23702;SDS011;12030;50.376;8.762;2023-10-31T02:44:24;1.53;;;0.20;;
23702;SDS011;12030;50.376;8.762;2023-10-31T02:46:49;0.30;;;0.30;;
23702;SDS011;12030;50.376;8.762;2023-10-31T02:49:15;1.27;;;0.20;;
23702;SDS011;12030;50.376;8.762;2023-10-31T02:51:40;0.50;;;0.20;;
23702;SDS011;12030;50.376;8.762;2023-10-31T02:54:06;0.40;;;0.23;;
23702;SDS011;12030;50.376;8.762;2023-10-31T02:56:31;0.20;;;0.10;;
23702;SDS011;12030;50.376;8.762;2023-10-31T02:58:57;1.57;;;0.23;;
23702;SDS011;12030;50.376;8.762;2023-10-31T03:01:22;0.90;;;0.20;;
23702;SDS011;12030;50.376;8.762;2023-10-31T03:03:48;0.30;;;0.10;;
23702;SDS011;12030;50.376;8.762;2023-10-31T03:06:13;0.27;;;0.07;;
23702;SDS011;12030;50.376;8.762;2023-10-31T03:08:39;0.57;;;0.10;;
23702;SDS011;12030;50.376;8.762;2023-10-31T03:11:04;0.30;;;0.10;;
23702;SDS011;12030;50.376;8.762;2023-10-31T03:13:30;0.40;;;0.20;;
23702;SDS011;12030;50.376;8.762;2023-10-31T03:15:55;0.73;;;0.23;;
23702;SDS011;12030;50.376;8.762;2023-10-31T03:18:21;0.20;;;0.10;;
23702;SDS011;12030;50.376;8.762;2023-10-31T03:20:48;0.60;;;0.10;;
23702;SDS011;12030;50.376;8.762;2023-10-31T03:23:13;0.93;;;0.20;;
23702;SDS011;12030;50.376;8.762;2023-10-31T03:25:39;1.57;;;0.23;;
23702;SDS011;12030;50.376;8.762;2023-10-31T03:28:08;0.20;;;0.10;;
23702;SDS011;12030;50.376;8.762;2023-10-31T03:30:44;1.20;;;0.30;;
23702;SDS011;12030;50.376;8.762;2023-10-31T03:33:10;0.30;;;0.17;;
23702;SDS011;12030;50.376;8.762;2023-10-31T03:35:35;0.27;;;0.10;;
23702;SDS011;12030;50.376;8.762;2023-10-31T03:38:01;0.97;;;0.20;;
23702;SDS011;12030;50.376;8.762;2023-10-31T03:40:27;1.43;;;0.27;;
23702;SDS011;12030;50.376;8.762;2023-10-31T03:42:53;5.13;;;0.40;;
23702;SDS011;12030;50.376;8.762;2023-10-31T03:45:18;0.40;;;0.10;;
23702;SDS011;12030;50.376;8.762;2023-10-31T03:47:44;0.30;;;0.20;;
23702;SDS011;12030;50.376;8.762;2023-10-31T03:50:09;3.90;;;0.20;;
23702;SDS011;12030;50.376;8.762;2023-10-31T03:52:35;0.40;;;0.13;;
23702;SDS011;12030;50.376;8.762;2023-10-31T03:55:00;0.50;;;0.30;;
23702;SDS011;12030;50.376;8.762;2023-10-31T03:57:26;0.30;;;0.17;;
23702;SDS011;12030;50.376;8.762;2023-10-31T03:59:51;1.90;;;0.10;;
23702;SDS011;12030;50.376;8.762;2023-10-31T04:02:17;0.33;;;0.13;;
23702;SDS011;12030;50.376;8.762;2023-10-31T04:04:42;1.33;;;0.30;;
23702;SDS011;12030;50.376;8.762;2023-10-31T04:07:08;0.40;;;0.20;;
23702;SDS011;12030;50.376;8.762;2023-10-31T04:09:33;1.43;;;0.20;;
23702;SDS011;12030;50.376;8.762;2023-10-31T04:11:59;0.87;;;0.20;;
23702;SDS011;12030;50.376;8.762;2023-10-31T04:14:24;0.40;;;0.23;;
23702;SDS011;12030;50.376;8.762;2023-10-31T04:16:50;0.43;;;0.30;;
23702;SDS011;12030;50.376;8.762;2023-10-31T04:19:15;0.47;;;0.40;;
23702;SDS011;12030;50.376;8.762;2023-10-31T04:21:41;0.43;;;0.30;;
23702;SDS011;12030;50.376;8.762;2023-10-31T04:24:06;1.23;;;0.40;;
23702;SDS011;12030;50.376;8.762;2023-10-31T04:26:32;0.77;;;0.30;;
23702;SDS011;12030;50.376;8.762;2023-10-31T04:28:58;0.30;;;0.30;;
23702;SDS011;12030;50.376;8.762;2023-10-31T04:31:23;1.60;;;0.50;;
23702;SDS011;12030;50.376;8.762;2023-10-31T04:33:49;1.60;;;0.40;;
23702;SDS011;12030;50.376;8.762;2023-10-31T04:36:15;0.97;;;0.43;;
23702;SDS011;12030;50.376;8.762;2023-10-31T04:38:40;1.03;;;0.33;;
23702;SDS011;12030;50.376;8.762;2023-10-31T04:41:07;1.40;;;0.40;;
23702;SDS011;12030;50.376;8.762;2023-10-31T04:43:33;0.67;;;0.37;;
23702;SDS011;12030;50.376;8.762;2023-10-31T04:45:58;0.53;;;0.40;;
23702;SDS011;12030;50.376;8.762;2023-10-31T04:48:24;1.70;;;0.50;;
23702;SDS011;12030;50.376;8.762;2023-10-31T04:50:49;0.87;;;0.40;;
23702;SDS011;12030;50.376;8.762;2023-10-31T04:53:15;0.67;;;0.40;;
23702;SDS011;12030;50.376;8.762;2023-10-31T04:55:40;0.37;;;0.20;;
23702;SDS011;12030;50.376;8.762;2023-10-31T04:58:06;2.37;;;0.40;;
23702;SDS011;12030;50.376;8.762;2023-10-31T05:00:31;0.50;;;0.30;;
23702;SDS011;12030;50.376;8.762;2023-10-31T05:02:57;0.97;;;0.30;;
23702;SDS011;12030;50.376;8.762;2023-10-31T05:05:23;0.33;;;0.23;;
23702;SDS011;12030;50.376;8.762;2023-10-31T05:07:48;1.17;;;0.40;;
23702;SDS011;12030;50.376;8.762;2023-10-31T05:10:14;0.40;;;0.20;;
23702;SDS011;12030;50.376;8.762;2023-10-31T05:12:39;0.60;;;0.37;;
23702;SDS011;12030;50.376;8.762;2023-10-31T05:15:06;0.50;;;0.40;;
23702;SDS011;12030;50.376;8.762;2023-10-31T05:17:32;0.50;;;0.40;;
23702;SDS011;12030;50.376;8.762;2023-10-31T05:19:58;2.60;;;0.50;;
23702;SDS011;12030;50.376;8.762;2023-10-31T05:22:23;0.90;;;0.63;;
23702;SDS011;12030;50.376;8.762;2023-10-31T05:24:49;1.53;;;0.47;;
23702;SDS011;12030;50.376;8.762;2023-10-31T05:27:14;1.20;;;0.50;;
23702;SDS011;12030;50.376;8.762;2023-10-31T05:29:39;0.83;;;0.50;;
23702;SDS011;12030;50.376;8.762;2023-10-31T05:32:05;1.00;;;0.50;;
23702;SDS011;12030;50.376;8.762;2023-10-31T05:34:31;1.63;;;0.40;;
23702;SDS011;12030;50.376;8.762;2023-10-31T05:36:56;0.90;;;0.50;;
23702;SDS011;12030;50.376;8.762;2023-10-31T05:39:22;1.53;;;0.53;;
23702;SDS011;12030;50.376;8.762;2023-10-31T05:41:47;1.10;;;0.50;;
23702;SDS011;12030;50.376;8.762;2023-10-31T05:44:13;0.50;;;0.50;;
23702;SDS011;12030;50.376;8.762;2023-10-31T05:46:41;1.73;;;0.50;;
23702;SDS011;12030;50.376;8.762;2023-10-31T05:49:07;1.27;;;0.50;;
23702;SDS011;12030;50.376;8.762;2023-10-31T05:51:33;1.00;;;0.60;;
23702;SDS011;12030;50.376;8.762;2023-10-31T05:54:00;0.77;;;0.60;;
23702;SDS011;12030;50.376;8.762;2023-10-31T05:56:26;1.63;;;0.60;;
23702;SDS011;12030;50.376;8.762;2023-10-31T05:58:52;0.87;;;0.47;;
23702;SDS011;12030;50.376;8.762;2023-10-31T06:01:17;2.30;;;0.60;;
23702;SDS011;12030;50.376;8.762;2023-10-31T06:03:43;0.63;;;0.50;;
23702;SDS011;12030;50.376;8.762;2023-10-31T06:06:09;2.33;;;0.60;;
23702;SDS011;12030;50.376;8.762;2023-10-31T06:08:35;1.00;;;0.50;;
23702;SDS011;12030;50.376;8.762;2023-10-31T06:11:00;0.67;;;0.50;;
23702;SDS011;12030;50.376;8.762;2023-10-31T06:13:26;0.70;;;0.60;;
23702;SDS011;12030;50.376;8.762;2023-10-31T06:15:55;1.53;;;0.93;;
23702;SDS011;12030;50.376;8.762;2023-10-31T06:18:20;1.37;;;0.60;;
23702;SDS011;12030;50.376;8.762;2023-10-31T06:20:46;0.83;;;0.77;;
23702;SDS011;12030;50.376;8.762;2023-10-31T06:23:11;1.30;;;0.80;;
23702;SDS011;12030;50.376;8.762;2023-10-31T06:25:37;0.80;;;0.80;;
23702;SDS011;12030;50.376;8.762;2023-10-31T06:28:03;1.93;;;0.90;;
23702;SDS011;12030;50.376;8.762;2023-10-31T06:30:29;1.47;;;1.10;;
23702;SDS011;12030;50.376;8.762;2023-10-31T06:32:54;2.00;;;1.50;;
23702;SDS011;12030;50.376;8.762;2023-10-31T06:35:20;2.63;;;1.00;;
23702;SDS011;12030;50.376;8.762;2023-10-31T06:37:45;1.40;;;0.90;;
23702;SDS011;12030;50.376;8.762;2023-10-31T06:40:11;1.30;;;1.10;;
23702;SDS011;12030;50.376;8.762;2023-10-31T06:42:36;2.03;;;1.10;;
23702;SDS011;12030;50.376;8.762;2023-10-31T06:45:02;1.97;;;1.00;;
23702;SDS011;12030;50.376;8.762;2023-10-31T06:47:29;1.90;;;1.00;;
23702;SDS011;12030;50.376;8.762;2023-10-31T06:49:55;1.80;;;1.27;;
23702;SDS011;12030;50.376;8.762;2023-10-31T06:52:20;1.93;;;1.00;;
23702;SDS011;12030;50.376;8.762;2023-10-31T06:54:46;1.50;;;1.30;;
23702;SDS011;12030;50.376;8.762;2023-10-31T06:57:11;1.37;;;1.03;;
23702;SDS011;12030;50.376;8.762;2023-10-31T06:59:37;1.77;;;1.40;;
23702;SDS011;12030;50.376;8.762;2023-10-31T07:02:02;2.83;;;1.27;;
23702;SDS011;12030;50.376;8.762;2023-10-31T07:04:28;1.27;;;1.17;;
23702;SDS011;12030;50.376;8.762;2023-10-31T07:06:53;1.13;;;1.00;;
23702;SDS011;12030;50.376;8.762;2023-10-31T07:09:25;1.10;;;1.00;;
23702;SDS011;12030;50.376;8.762;2023-10-31T07:11:51;1.10;;;1.00;;
23702;SDS011;12030;50.376;8.762;2023-10-31T07:14:17;2.13;;;0.80;;
23702;SDS011;12030;50.376;8.762;2023-10-31T07:16:42;0.77;;;0.77;;
23702;SDS011;12030;50.376;8.762;2023-10-31T07:19:09;1.83;;;0.90;;
23702;SDS011;12030;50.376;8.762;2023-10-31T07:21:35;2.00;;;0.70;;
23702;SDS011;12030;50.376;8.762;2023-10-31T07:24:01;2.40;;;0.87;;
23702;SDS011;12030;50.376;8.762;2023-10-31T07:26:27;1.53;;;0.70;;
23702;SDS011;12030;50.376;8.762;2023-10-31T07:28:52;2.60;;;0.80;;
23702;SDS011;12030;50.376;8.762;2023-10-31T07:31:18;0.60;;;0.60;;
23702;SDS011;12030;50.376;8.762;2023-10-31T07:33:44;1.53;;;0.80;;
23702;SDS011;12030;50.376;8.762;2023-10-31T07:36:10;1.03;;;0.80;;
23702;SDS011;12030;50.376;8.762;2023-10-31T07:38:36;1.43;;;0.70;;
23702;SDS011;12030;50.376;8.762;2023-10-31T07:41:01;0.80;;;0.70;;
23702;SDS011;12030;50.376;8.762;2023-10-31T07:43:27;1.37;;;0.87;;
23702;SDS011;12030;50.376;8.762;2023-10-31T07:45:53;0.80;;;0.60;;
23702;SDS011;12030;50.376;8.762;2023-10-31T07:48:18;1.67;;;0.83;;
23702;SDS011;12030;50.376;8.762;2023-10-31T07:50:44;1.37;;;0.70;;
23702;SDS011;12030;50.376;8.762;2023-10-31T07:53:09;1.03;;;0.70;;
23702;SDS011;12030;50.376;8.762;2023-10-31T07:55:35;1.30;;;0.80;;
23702;SDS011;12030;50.376;8.762;2023-10-31T07:58:00;1.17;;;0.87;;
23702;SDS011;12030;50.376;8.762;2023-10-31T08:00:26;1.37;;;0.80;;
23702;SDS011;12030;50.376;8.762;2023-10-31T08:02:52;2.00;;;0.60;;
23702;SDS011;12030;50.376;8.762;2023-10-31T08:05:17;2.23;;;0.70;;
23702;SDS011;12030;50.376;8.762;2023-10-31T08:07:43;0.80;;;0.60;;
23702;SDS011;12030;50.376;8.762;2023-10-31T08:10:09;1.00;;;0.80;;
23702;SDS011;12030;50.376;8.762;2023-10-31T08:12:34;3.10;;;0.60;;
23702;SDS011;12030;50.376;8.762;2023-10-31T08:15:00;1.73;;;0.90;;
23702;SDS011;12030;50.376;8.762;2023-10-31T08:17:27;0.80;;;0.60;;
23702;SDS011;12030;50.376;8.762;2023-10-31T08:19:52;1.00;;;0.90;;
23702;SDS011;12030;50.376;8.762;2023-10-31T08:22:18;0.53;;;0.50;;
23702;SDS011;12030;50.376;8.762;2023-10-31T08:24:43;1.33;;;0.57;;
23702;SDS011;12030;50.376;8.762;2023-10-31T08:27:09;1.93;;;0.70;;
23702;SDS011;12030;50.376;8.762;2023-10-31T08:29:35;1.87;;;1.40;;
23702;SDS011;12030;50.376;8.762;2023-10-31T08:32:01;1.47;;;0.70;;
23702;SDS011;12030;50.376;8.762;2023-10-31T08:34:26;2.30;;;0.80;;
23702;SDS011;12030;50.376;8.762;2023-10-31T08:36:52;1.17;;;0.70;;
23702;SDS011;12030;50.376;8.762;2023-10-31T08:39:17;2.20;;;0.67;;
23702;SDS011;12030;50.376;8.762;2023-10-31T08:41:52;1.50;;;0.70;;
23702;SDS011;12030;50.376;8.762;2023-10-31T08:44:22;1.37;;;0.70;;
23702;SDS011;12030;50.376;8.762;2023-10-31T08:46:48;1.30;;;0.90;;
23702;SDS011;12030;50.376;8.762;2023-10-31T08:49:16;1.07;;;0.70;;
23702;SDS011;12030;50.376;8.762;2023-10-31T08:51:42;0.80;;;0.70;;
23702;SDS011;12030;50.376;8.762;2023-10-31T08:54:09;1.63;;;0.70;;
23702;SDS011;12030;50.376;8.762;2023-10-31T08:56:34;1.20;;;0.60;;
23702;SDS011;12030;50.376;8.762;2023-10-31T08:59:00;1.60;;;0.90;;
23702;SDS011;12030;50.376;8.762;2023-10-31T09:01:26;2.27;;;1.07;;
23702;SDS011;12030;50.376;8.762;2023-10-31T09:03:53;0.70;;;0.70;;
23702;SDS011;12030;50.376;8.762;2023-10-31T09:06:19;1.80;;;1.00;;
23702;SDS011;12030;50.376;8.762;2023-10-31T09:08:45;2.20;;;1.00;;
23702;SDS011;12030;50.376;8.762;2023-10-31T09:11:10;1.63;;;0.97;;
23702;SDS011;12030;50.376;8.762;2023-10-31T09:13:36;1.63;;;0.90;;
23702;SDS011;12030;50.376;8.762;2023-10-31T09:16:01;1.17;;;0.80;;
23702;SDS011;12030;50.376;8.762;2023-10-31T09:18:27;1.00;;;0.70;;
23702;SDS011;12030;50.376;8.762;2023-10-31T09:20:53;1.97;;;0.87;;
23702;SDS011;12030;50.376;8.762;2023-10-31T09:23:18;1.87;;;0.90;;
23702;SDS011;12030;50.376;8.762;2023-10-31T09:25:44;3.40;;;1.27;;
23702;SDS011;12030;50.376;8.762;2023-10-31T09:28:10;1.97;;;1.00;;
23702;SDS011;12030;50.376;8.762;2023-10-31T09:30:36;1.10;;;0.80;;
23702;SDS011;12030;50.376;8.762;2023-10-31T09:33:02;1.40;;;0.80;;
23702;SDS011;12030;50.376;8.762;2023-10-31T09:35:27;0.60;;;0.50;;
23702;SDS011;12030;50.376;8.762;2023-10-31T09:37:53;0.70;;;0.57;;
23702;SDS011;12030;50.376;8.762;2023-10-31T09:40:19;1.30;;;0.70;;
23702;SDS011;12030;50.376;8.762;2023-10-31T09:42:45;0.77;;;0.77;;
23702;SDS011;12030;50.376;8.762;2023-10-31T09:45:12;1.10;;;0.83;;
23702;SDS011;12030;50.376;8.762;2023-10-31T09:47:40;2.17;;;0.90;;
23702;SDS011;12030;50.376;8.762;2023-10-31T09:50:09;3.50;;;0.90;;
23702;SDS011;12030;50.376;8.762;2023-10-31T09:52:36;1.90;;;0.80;;
23702;SDS011;12030;50.376;8.762;2023-10-31T09:55:02;0.90;;;0.80;;
23702;SDS011;12030;50.376;8.762;2023-10-31T09:57:29;1.43;;;0.77;;
23702;SDS011;12030;50.376;8.762;2023-10-31T09:59:54;0.90;;;0.70;;
23702;SDS011;12030;50.376;8.762;2023-10-31T10:02:20;1.23;;;0.70;;
23702;SDS011;12030;50.376;8.762;2023-10-31T10:04:45;2.70;;;0.90;;
23702;SDS011;12030;50.376;8.762;2023-10-31T10:07:13;1.20;;;0.70;;
23702;SDS011;12030;50.376;8.762;2023-10-31T10:09:42;0.80;;;0.70;;
23702;SDS011;12030;50.376;8.762;2023-10-31T10:12:08;1.10;;;0.57;;
23702;SDS011;12030;50.376;8.762;2023-10-31T10:14:37;0.90;;;0.50;;
23702;SDS011;12030;50.376;8.762;2023-10-31T10:17:13;0.60;;;0.30;;
23702;SDS011;12030;50.376;8.762;2023-10-31T10:19:40;0.80;;;0.50;;
23702;SDS011;12030;50.376;8.762;2023-10-31T10:22:05;1.43;;;0.40;;
23702;SDS011;12030;50.376;8.762;2023-10-31T10:24:31;0.60;;;0.40;;
23702;SDS011;12030;50.376;8.762;2023-10-31T10:26:56;1.77;;;0.50;;
23702;SDS011;12030;50.376;8.762;2023-10-31T10:29:23;0.90;;;0.23;;
23702;SDS011;12030;50.376;8.762;2023-10-31T10:31:49;0.57;;;0.47;;
23702;SDS011;12030;50.376;8.762;2023-10-31T10:34:15;1.23;;;0.43;;
23702;SDS011;12030;50.376;8.762;2023-10-31T10:36:41;0.57;;;0.37;;
23702;SDS011;12030;50.376;8.762;2023-10-31T10:39:11;1.40;;;0.50;;
23702;SDS011;12030;50.376;8.762;2023-10-31T10:41:37;0.70;;;0.50;;
23702;SDS011;12030;50.376;8.762;2023-10-31T10:44:06;0.70;;;0.40;;
23702;SDS011;12030;50.376;8.762;2023-10-31T10:46:33;0.83;;;0.30;;
23702;SDS011;12030;50.376;8.762;2023-10-31T10:49:02;2.10;;;0.40;;
23702;SDS011;12030;50.376;8.762;2023-10-31T10:51:33;1.03;;;0.40;;
23702;SDS011;12030;50.376;8.762;2023-10-31T10:54:15;2.93;;;0.30;;
23702;SDS011;12030;50.376;8.762;2023-10-31T10:56:46;1.13;;;0.33;;
23702;SDS011;12030;50.376;8.762;2023-10-31T10:59:21;0.47;;;0.40;;
23702;SDS011;12030;50.376;8.762;2023-10-31T11:02:00;0.60;;;0.30;;
23702;SDS011;12030;50.376;8.762;2023-10-31T11:04:27;0.70;;;0.40;;
23702;SDS011;12030;50.376;8.762;2023-10-31T11:06:53;0.60;;;0.30;;
23702;SDS011;12030;50.376;8.762;2023-10-31T11:09:19;0.77;;;0.40;;
23702;SDS011;12030;50.376;8.762;2023-10-31T11:11:46;3.67;;;0.30;;
23702;SDS011;12030;50.376;8.762;2023-10-31T11:14:14;1.27;;;0.50;;
23702;SDS011;12030;50.376;8.762;2023-10-31T11:16:42;0.63;;;0.40;;
23702;SDS011;12030;50.376;8.762;2023-10-31T11:19:19;0.40;;;0.20;;
23702;SDS011;12030;50.376;8.762;2023-10-31T11:21:55;0.60;;;0.20;;
23702;SDS011;12030;50.376;8.762;2023-10-31T11:24:23;0.60;;;0.30;;
23702;SDS011;12030;50.376;8.762;2023-10-31T11:26:58;0.50;;;0.20;;
23702;SDS011;12030;50.376;8.762;2023-10-31T11:29:25;0.40;;;0.30;;
23702;SDS011;12030;50.376;8.762;2023-10-31T11:31:51;0.70;;;0.30;;
23702;SDS011;12030;50.376;8.762;2023-10-31T11:34:19;0.30;;;0.17;;
23702;SDS011;12030;50.376;8.762;2023-10-31T11:36:45;0.20;;;0.20;;
23702;SDS011;12030;50.376;8.762;2023-10-31T11:39:14;0.50;;;0.23;;
23702;SDS011;12030;50.376;8.762;2023-10-31T11:41:49;3.13;;;0.30;;
23702;SDS011;12030;50.376;8.762;2023-10-31T11:44:18;1.97;;;0.30;;
23702;SDS011;12030;50.376;8.762;2023-10-31T11:46:53;0.37;;;0.20;;
23702;SDS011;12030;50.376;8.762;2023-10-31T11:52:18;0.30;;;0.10;;
23702;SDS011;12030;50.376;8.762;2023-10-31T11:54:44;1.20;;;0.30;;
23702;SDS011;12030;50.376;8.762;2023-10-31T11:57:09;0.70;;;0.37;;
23702;SDS011;12030;50.376;8.762;2023-10-31T11:59:38;0.50;;;0.30;;
23702;SDS011;12030;50.376;8.762;2023-10-31T12:02:14;0.83;;;0.20;;
23702;SDS011;12030;50.376;8.762;2023-10-31T12:04:40;0.83;;;0.23;;
23702;SDS011;12030;50.376;8.762;2023-10-31T12:07:05;1.17;;;0.40;;
23702;SDS011;12030;50.376;8.762;2023-10-31T12:09:31;0.37;;;0.20;;
23702;SDS011;12030;50.376;8.762;2023-10-31T12:11:56;0.70;;;0.30;;
23702;SDS011;12030;50.376;8.762;2023-10-31T12:14:22;0.60;;;0.30;;
23702;SDS011;12030;50.376;8.762;2023-10-31T12:16:47;0.30;;;0.20;;
23702;SDS011;12030;50.376;8.762;2023-10-31T12:19:13;0.43;;;0.27;;
23702;SDS011;12030;50.376;8.762;2023-10-31T12:24:08;2.70;;;0.37;;
23702;SDS011;12030;50.376;8.762;2023-10-31T12:26:37;0.70;;;0.27;;
23702;SDS011;12030;50.376;8.762;2023-10-31T12:29:07;0.30;;;0.20;;
23702;SDS011;12030;50.376;8.762;2023-10-31T12:31:41;0.70;;;0.30;;
23702;SDS011;12030;50.376;8.762;2023-10-31T12:34:18;0.40;;;0.30;;
23702;SDS011;12030;50.376;8.762;2023-10-31T12:36:50;1.13;;;0.50;;
23702;SDS011;12030;50.376;8.762;2023-10-31T12:39:17;1.17;;;0.40;;
23702;SDS011;12030;50.376;8.762;2023-10-31T12:41:45;0.53;;;0.23;;
23702;SDS011;12030;50.376;8.762;2023-10-31T12:44:13;1.70;;;0.50;;
23702;SDS011;12030;50.376;8.762;2023-10-31T12:46:42;0.60;;;0.27;;
23702;SDS011;12030;50.376;8.762;2023-10-31T12:49:11;0.90;;;0.30;;
23702;SDS011;12030;50.376;8.762;2023-10-31T12:51:38;1.17;;;0.40;;
23702;SDS011;12030;50.376;8.762;2023-10-31T12:54:26;2.07;;;0.50;;
23702;SDS011;12030;50.376;8.762;2023-10-31T12:56:59;2.27;;;1.13;;
23702;SDS011;12030;50.376;8.762;2023-10-31T12:59:26;0.80;;;0.30;;
23702;SDS011;12030;50.376;8.762;2023-10-31T13:01:51;0.67;;;0.40;;
23702;SDS011;12030;50.376;8.762;2023-10-31T13:04:26;1.57;;;0.50;;
23702;SDS011;12030;50.376;8.762;2023-10-31T13:09:21;0.30;;;0.20;;
23702;SDS011;12030;50.376;8.762;2023-10-31T13:11:47;3.60;;;0.40;;
23702;SDS011;12030;50.376;8.762;2023-10-31T13:14:12;1.83;;;0.40;;
23702;SDS011;12030;50.376;8.762;2023-10-31T13:16:38;0.83;;;0.27;;
23702;SDS011;12030;50.376;8.762;2023-10-31T13:19:04;1.97;;;0.50;;
23702;SDS011;12030;50.376;8.762;2023-10-31T13:21:29;1.33;;;0.40;;
23702;SDS011;12030;50.376;8.762;2023-10-31T13:23:55;0.87;;;0.33;;
23702;SDS011;12030;50.376;8.762;2023-10-31T13:26:20;2.13;;;0.30;;
23702;SDS011;12030;50.376;8.762;2023-10-31T13:28:46;2.80;;;0.60;;
23702;SDS011;12030;50.376;8.762;2023-10-31T13:31:11;0.83;;;0.27;;
23702;SDS011;12030;50.376;8.762;2023-10-31T13:33:39;1.47;;;0.40;;
23702;SDS011;12030;50.376;8.762;2023-10-31T13:36:04;1.07;;;0.40;;
23702;SDS011;12030;50.376;8.762;2023-10-31T13:38:30;0.40;;;0.30;;
23702;SDS011;12030;50.376;8.762;2023-10-31T13:40:56;1.43;;;0.30;;
23702;SDS011;12030;50.376;8.762;2023-10-31T13:43:21;2.03;;;0.40;;
23702;SDS011;12030;50.376;8.762;2023-10-31T13:45:47;1.13;;;0.40;;
23702;SDS011;12030;50.376;8.762;2023-10-31T13:48:12;0.87;;;0.40;;
23702;SDS011;12030;50.376;8.762;2023-10-31T13:50:39;1.03;;;0.40;;
23702;SDS011;12030;50.376;8.762;2023-10-31T13:53:06;0.77;;;0.30;;
23702;SDS011;12030;50.376;8.762;2023-10-31T13:55:32;1.77;;;0.40;;
23702;SDS011;12030;50.376;8.762;2023-10-31T13:57:58;1.97;;;0.60;;
23702;SDS011;12030;50.376;8.762;2023-10-31T14:00:23;1.00;;;0.40;;
23702;SDS011;12030;50.376;8.762;2023-10-31T14:02:49;1.83;;;0.60;;
23702;SDS011;12030;50.376;8.762;2023-10-31T14:05:14;0.50;;;0.30;;
23702;SDS011;12030;50.376;8.762;2023-10-31T14:07:41;1.20;;;0.50;;
23702;SDS011;12030;50.376;8.762;2023-10-31T14:10:07;0.90;;;0.60;;
23702;SDS011;12030;50.376;8.762;2023-10-31T14:12:32;1.20;;;0.57;;
23702;SDS011;12030;50.376;8.762;2023-10-31T14:14:58;1.13;;;0.50;;
23702;SDS011;12030;50.376;8.762;2023-10-31T14:17:24;1.00;;;0.40;;
23702;SDS011;12030;50.376;8.762;2023-10-31T14:19:49;1.60;;;0.50;;
23702;SDS011;12030;50.376;8.762;2023-10-31T14:22:15;1.27;;;0.50;;
23702;SDS011;12030;50.376;8.762;2023-10-31T14:24:40;1.23;;;0.57;;
23702;SDS011;12030;50.376;8.762;2023-10-31T14:27:06;1.03;;;0.40;;
23702;SDS011;12030;50.376;8.762;2023-10-31T14:29:32;1.03;;;0.60;;
23702;SDS011;12030;50.376;8.762;2023-10-31T14:32:04;0.90;;;0.40;;
23702;SDS011;12030;50.376;8.762;2023-10-31T14:34:34;1.37;;;0.50;;
23702;SDS011;12030;50.376;8.762;2023-10-31T14:36:59;1.13;;;0.40;;
23702;SDS011;12030;50.376;8.762;2023-10-31T14:39:25;1.00;;;0.40;;
23702;SDS011;12030;50.376;8.762;2023-10-31T14:41:50;1.50;;;0.60;;
23702;SDS011;12030;50.376;8.762;2023-10-31T14:44:16;2.00;;;0.60;;
23702;SDS011;12030;50.376;8.762;2023-10-31T14:46:41;1.03;;;0.43;;
23702;SDS011;12030;50.376;8.762;2023-10-31T14:49:07;1.30;;;0.50;;
23702;SDS011;12030;50.376;8.762;2023-10-31T14:51:34;2.27;;;0.60;;